createdAt,value
2023-03-30T00:00:47.318Z,4.00
2023-03-30T00:03:19.473Z,4.00
2023-03-30T00:05:47.841Z,4.00
2023-03-30T00:08:18.348Z,4.00
2023-03-30T00:10:46.458Z,3.75
2023-03-30T00:13:14.473Z,4.00
2023-03-30T00:15:42.707Z,4.00
2023-03-30T00:18:10.701Z,4.00
2023-03-30T00:20:43.139Z,3.50
2023-03-30T00:23:11.273Z,4.50
2023-03-30T00:25:39.484Z,4.00
2023-03-30T00:28:07.504Z,4.75
2023-03-30T00:30:37.067Z,3.00
2023-03-30T00:33:05.045Z,4.00
2023-03-30T00:35:33.261Z,4.00
2023-03-30T00:38:03.327Z,4.00
2023-03-30T00:40:32.528Z,4.00
2023-03-30T00:43:01.378Z,3.00
2023-03-30T00:45:29.852Z,3.50
2023-03-30T00:48:00.542Z,2.75
2023-03-30T00:50:34.938Z,3.00
2023-03-30T00:53:08.866Z,3.50
2023-03-30T00:55:37.375Z,3.00
2023-03-30T00:58:06.586Z,3.00
2023-03-30T01:00:34.864Z,3.00
2023-03-30T01:03:04.227Z,3.00
2023-03-30T01:05:32.477Z,3.00
2023-03-30T01:08:00.432Z,4.00
2023-03-30T01:10:29.705Z,2.75
2023-03-30T01:12:57.582Z,3.00
2023-03-30T01:15:25.859Z,3.00
2023-03-30T01:18:04.576Z,3.00
2023-03-30T01:21:05.742Z,3.00
2023-03-30T01:24:04.441Z,3.00
2023-03-30T01:26:46.185Z,3.00
2023-03-30T01:29:18.925Z,2.25
2023-03-30T01:32:31.189Z,3.00
2023-03-30T01:35:16.978Z,4.00
2023-03-30T01:38:03.983Z,3.00
2023-03-30T01:40:33.725Z,3.00
2023-03-30T01:43:03.373Z,3.00
2023-03-30T01:45:34.872Z,3.00
2023-03-30T01:48:05.896Z,3.00
2023-03-30T01:50:36.845Z,3.00
2023-03-30T01:53:06.910Z,2.75
2023-03-30T01:55:37.155Z,3.50
2023-03-30T01:58:07.262Z,3.00
2023-03-30T02:00:36.366Z,2.00
2023-03-30T02:03:06.810Z,3.00
2023-03-30T02:05:35.165Z,2.00
2023-03-30T02:08:04.588Z,2.00
2023-03-30T02:10:33.853Z,2.50
2023-03-30T02:13:03.148Z,3.00
2023-03-30T02:15:34.802Z,3.00
2023-03-30T02:18:03.105Z,2.25
2023-03-30T02:20:31.886Z,2.00
2023-03-30T02:22:59.888Z,3.00
2023-03-30T02:25:28.642Z,2.75
2023-03-30T02:27:57.067Z,3.00
2023-03-30T02:30:26.449Z,3.00
2023-03-30T02:32:55.607Z,3.00
2023-03-30T02:35:41.304Z,2.50
2023-03-30T02:38:36.641Z,3.00
2023-03-30T02:41:14.532Z,3.00
2023-03-30T02:43:46.900Z,2.00
2023-03-30T02:46:27.695Z,2.00
2023-03-30T02:49:00.500Z,2.75
2023-03-30T02:51:39.981Z,2.25
2023-03-30T02:54:13.017Z,2.00
2023-03-30T02:56:43.721Z,2.00
2023-03-30T02:59:12.907Z,2.00
2023-03-30T03:01:43.837Z,2.00
2023-03-30T03:04:11.770Z,2.00
2023-03-30T03:06:39.968Z,2.00
2023-03-30T03:09:07.856Z,3.00
2023-03-30T03:12:31.913Z,2.00
2023-03-30T03:15:01.898Z,2.00
2023-03-30T03:17:34.753Z,2.00
2023-03-30T03:20:03.650Z,2.75
2023-03-30T03:22:32.021Z,3.00
2023-03-30T03:24:59.958Z,2.00
2023-03-30T03:27:27.868Z,2.00
2023-03-30T03:29:55.779Z,2.00
2023-03-30T03:32:24.006Z,2.25
2023-03-30T03:34:53.734Z,2.25
2023-03-30T03:37:22.032Z,2.75
2023-03-30T03:39:49.942Z,2.25
2023-03-30T03:42:18.339Z,2.00
2023-03-30T03:44:46.256Z,2.00
2023-03-30T03:47:16.545Z,2.00
2023-03-30T03:49:44.720Z,2.00
2023-03-30T03:52:14.267Z,2.00
2023-03-30T03:54:42.183Z,2.00
2023-03-30T03:57:10.261Z,2.00
2023-03-30T03:59:38.367Z,2.00
2023-03-30T04:02:06.624Z,3.00
2023-03-30T04:04:34.734Z,1.25
2023-03-30T04:07:02.636Z,1.50
2023-03-30T04:09:32.109Z,3.00
2023-03-30T04:12:00.754Z,2.00
2023-03-30T04:14:28.706Z,2.00
2023-03-30T04:16:57.858Z,3.00
2023-03-30T04:19:27.701Z,3.50
2023-03-30T04:21:56.043Z,3.00
2023-03-30T04:24:24.165Z,3.50
2023-03-30T04:26:53.758Z,4.00
2023-03-30T04:29:21.851Z,3.00
2023-03-30T04:31:50.985Z,3.00
2023-03-30T04:34:21.966Z,4.00
2023-03-30T04:36:49.949Z,4.00
2023-03-30T04:39:18.180Z,4.00
2023-03-30T04:41:47.160Z,4.25
2023-03-30T04:44:20.384Z,5.00
2023-03-30T04:46:48.389Z,4.75
2023-03-30T04:49:16.606Z,5.75
2023-03-30T04:51:44.813Z,5.00
2023-03-30T04:54:12.797Z,5.25
2023-03-30T04:56:40.896Z,5.25
2023-03-30T04:59:08.872Z,5.00
2023-03-30T05:01:38.550Z,7.00
2023-03-30T05:04:06.591Z,6.75
2023-03-30T05:06:34.555Z,6.00
2023-03-30T05:09:02.511Z,6.00
2023-03-30T05:11:30.785Z,5.00
2023-03-30T05:13:58.715Z,6.50
2023-03-30T05:16:27.163Z,6.00
2023-03-30T05:18:56.831Z,6.00
2023-03-30T05:21:25.059Z,6.00
2023-03-30T05:23:53.038Z,5.75
2023-03-30T05:26:21.723Z,6.00
2023-03-30T05:28:49.699Z,6.00
2023-03-30T05:31:18.232Z,6.00
2023-03-30T05:33:49.007Z,6.00
2023-03-30T05:36:18.386Z,7.00
2023-03-30T05:38:46.867Z,5.25
2023-03-30T05:41:15.065Z,6.00
2023-03-30T05:43:42.998Z,6.00
2023-03-30T05:46:11.119Z,5.75
2023-03-30T05:48:39.155Z,6.00
2023-03-30T05:51:08.191Z,5.00
2023-03-30T05:53:37.768Z,5.00
2023-03-30T05:56:07.297Z,7.00
2023-03-30T05:58:35.242Z,5.75
2023-03-30T06:01:03.607Z,5.25
2023-03-30T06:03:32.076Z,5.25
2023-03-30T06:06:00.429Z,5.00
2023-03-30T06:08:28.884Z,5.25
2023-03-30T06:10:59.900Z,5.50
2023-03-30T06:13:27.916Z,5.00
2023-03-30T06:15:56.163Z,5.00
2023-03-30T06:18:24.384Z,5.00
2023-03-30T06:20:52.302Z,5.00
2023-03-30T06:23:20.297Z,5.00
2023-03-30T06:25:52.735Z,5.00
2023-03-30T06:28:22.861Z,5.00
2023-03-30T06:30:51.579Z,5.00
2023-03-30T06:33:19.626Z,5.00
2023-03-30T06:35:47.866Z,5.50
2023-03-30T06:38:16.129Z,4.25
2023-03-30T06:40:44.365Z,4.00
2023-03-30T06:43:16.622Z,5.00
2023-03-30T06:45:51.022Z,5.00
2023-03-30T06:48:19.728Z,5.25
2023-03-30T06:50:48.846Z,4.00
2023-03-30T06:53:16.967Z,5.00
2023-03-30T06:55:44.947Z,4.25
2023-03-30T06:58:12.850Z,4.00
2023-03-30T07:00:41.172Z,4.00
2023-03-30T07:03:10.509Z,5.00
2023-03-30T07:05:38.393Z,4.00
2023-03-30T07:08:08.316Z,5.00
2023-03-30T07:10:36.210Z,4.00
2023-03-30T07:13:04.147Z,4.00
2023-03-30T07:15:32.101Z,4.00
2023-03-30T07:18:00.058Z,4.00
2023-03-30T07:20:29.714Z,4.00
2023-03-30T07:22:57.627Z,4.00
2023-03-30T07:25:25.586Z,4.00
2023-03-30T07:27:53.484Z,4.00
2023-03-30T07:30:22.822Z,5.00
2023-03-30T07:32:51.504Z,3.25
2023-03-30T07:35:19.614Z,3.00
2023-03-30T07:37:50.931Z,4.00
2023-03-30T07:40:19.210Z,4.00
2023-03-30T07:42:50.717Z,4.00
2023-03-30T07:45:18.664Z,4.00
2023-03-30T07:47:49.648Z,4.00
2023-03-30T07:50:17.852Z,3.00
2023-03-30T07:52:46.105Z,3.00
2023-03-30T07:55:15.459Z,2.00
2023-03-30T07:57:44.198Z,3.00
2023-03-30T08:00:14.444Z,3.00
2023-03-30T08:02:44.839Z,3.50
2023-03-30T08:05:13.000Z,3.50
2023-03-30T08:07:41.478Z,3.25
2023-03-30T08:10:10.294Z,3.00
2023-03-30T08:12:39.905Z,3.00
2023-03-30T08:15:13.772Z,4.00
2023-03-30T08:17:41.733Z,2.75
2023-03-30T08:20:11.663Z,3.00
2023-03-30T08:22:40.022Z,3.50
2023-03-30T08:25:09.376Z,3.25
2023-03-30T08:27:37.371Z,3.00
2023-03-30T08:30:16.394Z,3.00
2023-03-30T08:32:44.395Z,3.00
2023-03-30T08:35:13.341Z,3.00
2023-03-30T08:37:41.328Z,2.00
2023-03-30T08:40:11.362Z,3.00
2023-03-30T08:42:49.868Z,3.00
2023-03-30T08:45:19.485Z,2.00
2023-03-30T08:47:49.955Z,2.75
2023-03-30T08:50:19.217Z,3.00
2023-03-30T08:52:47.386Z,3.00
2023-03-30T08:55:24.352Z,2.00
2023-03-30T08:57:53.049Z,2.00
2023-03-30T09:00:28.259Z,2.25
2023-03-30T09:03:00.572Z,3.00
2023-03-30T09:05:30.449Z,3.00
2023-03-30T09:08:02.115Z,2.00
2023-03-30T09:10:33.275Z,2.00
2023-03-30T09:13:01.719Z,2.00
2023-03-30T09:15:32.193Z,2.00
2023-03-30T09:18:02.592Z,2.00
2023-03-30T09:20:32.481Z,2.25
2023-03-30T09:23:01.173Z,2.00
2023-03-30T09:25:32.695Z,2.00
2023-03-30T09:28:03.469Z,2.00
2023-03-30T09:30:35.711Z,2.00
2023-03-30T09:33:06.657Z,2.00
2023-03-30T09:35:38.326Z,2.00
2023-03-30T09:38:06.294Z,2.00
2023-03-30T09:40:42.745Z,2.00
2023-03-30T09:43:13.850Z,2.00
2023-03-30T09:45:43.286Z,1.00
2023-03-30T09:48:11.367Z,1.25
2023-03-30T09:50:41.038Z,2.00
2023-03-30T09:53:18.224Z,1.25
2023-03-30T09:55:55.852Z,1.00
2023-03-30T09:58:28.690Z,2.00
2023-03-30T10:01:08.773Z,1.25
2023-03-30T10:03:37.218Z,1.00
2023-03-30T10:06:07.547Z,1.00
2023-03-30T10:08:38.413Z,1.00
2023-03-30T10:11:07.730Z,1.00
2023-03-30T10:13:37.738Z,1.00
2023-03-30T10:16:08.716Z,1.25
2023-03-30T10:18:40.367Z,1.50
2023-03-30T10:21:17.121Z,2.00
2023-03-30T10:23:46.007Z,1.25
2023-03-30T10:26:15.556Z,1.00
2023-03-30T10:28:55.970Z,1.00
2023-03-30T10:31:27.901Z,1.00
2023-03-30T10:33:57.057Z,1.25
2023-03-30T10:36:25.064Z,1.00
2023-03-30T10:38:53.739Z,1.00
2023-03-30T10:41:22.788Z,0.00
2023-03-30T10:43:50.958Z,1.00
2023-03-30T10:46:20.804Z,1.00
2023-03-30T10:49:04.883Z,1.00
2023-03-30T10:51:38.023Z,0.50
2023-03-30T10:54:08.711Z,1.00
2023-03-30T10:56:40.405Z,1.00
2023-03-30T10:59:22.504Z,1.00
2023-03-30T11:01:56.925Z,1.00
2023-03-30T11:04:28.986Z,1.00
2023-03-30T11:06:57.718Z,1.00
2023-03-30T11:09:28.520Z,1.00
2023-03-30T11:11:57.507Z,1.00
2023-03-30T11:14:28.141Z,1.00
2023-03-30T11:16:58.647Z,1.00
2023-03-30T11:19:30.209Z,0.50
2023-03-30T11:22:01.326Z,1.00
2023-03-30T11:24:29.441Z,0.25
2023-03-30T11:27:00.394Z,1.00
2023-03-30T11:29:35.156Z,1.00
2023-03-30T11:32:14.728Z,1.00
2023-03-30T11:34:51.575Z,0.25
2023-03-30T11:37:21.416Z,1.00
2023-03-30T11:39:51.893Z,1.00
2023-03-30T11:42:23.085Z,1.00
2023-03-30T11:44:51.778Z,1.00
2023-03-30T11:47:31.751Z,0.00
2023-03-30T11:50:07.897Z,0.00
2023-03-30T11:52:37.298Z,1.00
2023-03-30T11:55:26.042Z,1.00
2023-03-30T11:57:58.814Z,0.00
2023-03-30T12:00:29.533Z,0.00
2023-03-30T12:03:02.990Z,0.00
2023-03-30T12:05:33.523Z,0.00
2023-03-30T12:08:05.045Z,0.00
2023-03-30T12:10:34.493Z,0.00
2023-03-30T12:13:02.438Z,0.25
2023-03-30T12:15:38.050Z,1.00
2023-03-30T12:18:09.726Z,1.00
2023-03-30T12:20:42.883Z,0.00
2023-03-30T12:23:24.275Z,1.00
2023-03-30T12:26:04.076Z,0.00
2023-03-30T12:29:00.811Z,0.00
2023-03-30T12:31:51.335Z,0.00
2023-03-30T12:34:19.747Z,0.50
2023-03-30T12:36:51.074Z,1.00
2023-03-30T12:39:21.818Z,0.25
2023-03-30T12:41:51.042Z,0.00
2023-03-30T12:44:29.285Z,0.00
2023-03-30T12:47:07.147Z,0.75
2023-03-30T12:49:42.931Z,0.00
2023-03-30T12:52:14.134Z,0.00
2023-03-30T12:55:17.797Z,0.50
2023-03-30T12:58:24.469Z,0.00
2023-03-30T13:00:58.798Z,0.00
2023-03-30T13:03:38.341Z,0.00
2023-03-30T13:06:08.003Z,0.00
2023-03-30T13:08:38.745Z,0.00
2023-03-30T13:11:14.109Z,0.00
2023-03-30T13:14:15.962Z,0.00
2023-03-30T13:16:49.089Z,0.00
2023-03-30T13:19:24.036Z,0.00
2023-03-30T13:21:56.677Z,0.00
2023-03-30T13:24:37.109Z,0.00
2023-03-30T13:27:24.024Z,0.00
2023-03-30T13:29:54.939Z,0.00
2023-03-30T13:32:33.374Z,0.00
2023-03-30T13:35:36.457Z,0.00
2023-03-30T13:38:36.334Z,0.00
2023-03-30T13:41:12.215Z,0.00
2023-03-30T13:43:48.083Z,0.00
2023-03-30T13:46:20.129Z,0.50
2023-03-30T13:48:56.025Z,0.00
2023-03-30T13:51:25.510Z,0.00
2023-03-30T13:53:54.706Z,0.00
2023-03-30T13:56:24.109Z,0.00
2023-03-30T13:58:53.174Z,0.00
2023-03-30T14:01:21.736Z,0.00
2023-03-30T14:03:49.799Z,0.00
2023-03-30T14:06:19.038Z,0.00
2023-03-30T14:08:48.338Z,0.00
2023-03-30T14:11:17.761Z,0.00
2023-03-30T14:13:48.446Z,0.00
2023-03-30T14:16:20.961Z,0.00
2023-03-30T14:18:48.968Z,0.00
2023-03-30T14:21:18.038Z,0.00
2023-03-30T14:23:47.522Z,0.00
2023-03-30T14:26:16.495Z,0.00
2023-03-30T14:28:44.463Z,0.00
2023-03-30T14:31:18.753Z,0.00
2023-03-30T14:33:46.781Z,0.00
2023-03-30T14:36:16.272Z,0.00
2023-03-30T14:38:45.078Z,0.00
2023-03-30T14:41:16.542Z,0.00
2023-03-30T14:43:45.241Z,0.00
2023-03-30T14:46:13.260Z,0.00
2023-03-30T14:48:43.712Z,0.00
2023-03-30T14:51:23.806Z,0.00
2023-03-30T14:53:52.132Z,0.00
2023-03-30T14:56:20.053Z,0.00
2023-03-30T14:58:48.365Z,0.00
2023-03-30T15:01:18.028Z,0.00
2023-03-30T15:03:47.382Z,0.00
2023-03-30T15:06:17.711Z,0.25
2023-03-30T15:08:47.166Z,0.00
2023-03-30T15:11:16.421Z,0.50
2023-03-30T15:13:45.456Z,0.00
2023-03-30T15:16:15.542Z,0.00
2023-03-30T15:18:45.181Z,0.00
2023-03-30T15:21:14.990Z,0.50
2023-03-30T15:23:45.386Z,0.50
2023-03-30T15:26:13.360Z,0.00
2023-03-30T15:28:45.014Z,0.00
2023-03-30T15:31:14.154Z,0.25
2023-03-30T15:33:43.530Z,0.00
2023-03-30T15:36:14.613Z,0.00
2023-03-30T15:38:48.581Z,0.00
2023-03-30T15:41:16.775Z,0.00
2023-03-30T15:43:58.026Z,0.00
2023-03-30T15:46:27.958Z,0.00
2023-03-30T15:48:56.038Z,0.00
2023-03-30T15:51:27.724Z,0.00
2023-03-30T15:53:56.786Z,1.00
2023-03-30T15:56:26.708Z,0.00
2023-03-30T15:58:55.007Z,0.00
2023-03-30T16:01:23.396Z,0.00
2023-03-30T16:03:54.939Z,0.00
2023-03-30T16:06:23.046Z,0.00
2023-03-30T16:08:52.408Z,0.00
2023-03-30T16:11:20.696Z,0.00
2023-03-30T16:13:49.377Z,0.00
2023-03-30T16:16:18.460Z,0.00
2023-03-30T16:18:46.811Z,1.00
2023-03-30T16:21:15.799Z,0.25
2023-03-30T16:23:43.731Z,0.00
2023-03-30T16:26:13.582Z,0.00
2023-03-30T16:28:42.839Z,1.00
2023-03-30T16:31:14.050Z,1.00
2023-03-30T16:33:43.911Z,0.00
2023-03-30T16:36:13.950Z,0.75
2023-03-30T16:38:41.885Z,0.00
2023-03-30T16:41:11.442Z,1.00
2023-03-30T16:43:41.171Z,0.00
2023-03-30T16:46:11.157Z,0.00
2023-03-30T16:48:39.512Z,0.00
2023-03-30T16:51:08.084Z,0.00
2023-03-30T16:53:36.200Z,0.00
2023-03-30T16:56:04.176Z,0.00
2023-03-30T16:58:32.141Z,1.00
2023-03-30T17:01:04.225Z,0.00
2023-03-30T17:03:32.535Z,0.00
2023-03-30T17:06:00.465Z,0.00
2023-03-30T17:08:31.449Z,0.00
2023-03-30T17:11:01.045Z,0.00
2023-03-30T17:13:29.087Z,0.50
2023-03-30T17:15:58.354Z,1.00
2023-03-30T17:18:28.178Z,1.75
2023-03-30T17:20:56.746Z,1.50
2023-03-30T17:23:25.660Z,2.00
2023-03-30T17:25:54.077Z,1.75
2023-03-30T17:28:23.042Z,2.00
2023-03-30T17:30:51.978Z,2.00
2023-03-30T17:33:19.954Z,1.50
2023-03-30T17:35:50.463Z,1.25
2023-03-30T17:38:18.432Z,2.00
2023-03-30T17:40:48.509Z,1.00
2023-03-30T17:43:16.560Z,1.25
2023-03-30T17:45:44.659Z,2.00
2023-03-30T17:48:13.866Z,1.75
2023-03-30T17:50:43.695Z,1.50
2023-03-30T17:53:14.554Z,2.00
2023-03-30T17:55:42.539Z,2.00
2023-03-30T17:58:15.073Z,2.00
2023-03-30T18:00:43.414Z,2.25
2023-03-30T18:03:11.356Z,3.25
2023-03-30T18:05:39.360Z,3.00
2023-03-30T18:08:11.184Z,2.25
2023-03-30T18:10:40.935Z,3.50
2023-03-30T18:13:08.922Z,3.00
2023-03-30T18:15:37.143Z,4.00
2023-03-30T18:18:05.665Z,3.00
2023-03-30T18:20:34.813Z,3.00
2023-03-30T18:23:03.093Z,4.00
2023-03-30T18:25:32.667Z,5.00
2023-03-30T18:28:02.455Z,5.00
2023-03-30T18:30:31.565Z,3.25
2023-03-30T18:32:59.537Z,5.00
2023-03-30T18:35:28.763Z,4.00
2023-03-30T18:37:56.949Z,4.25
2023-03-30T18:40:26.568Z,5.00
2023-03-30T18:42:54.861Z,6.00
2023-03-30T18:45:26.819Z,6.00
2023-03-30T18:47:55.005Z,6.75
2023-03-30T18:50:31.175Z,7.25
2023-03-30T18:52:59.190Z,7.50
2023-03-30T18:55:27.099Z,7.25
2023-03-30T18:57:55.060Z,7.00
2023-03-30T19:00:26.390Z,6.00
2023-03-30T19:02:54.627Z,6.25
2023-03-30T19:05:22.974Z,7.50
2023-03-30T19:07:51.476Z,6.75
2023-03-30T19:10:20.587Z,6.00
2023-03-30T19:12:53.396Z,6.00
2023-03-30T19:15:24.624Z,5.50
2023-03-30T19:17:52.774Z,4.00
2023-03-30T19:20:21.387Z,5.00
2023-03-30T19:22:49.922Z,5.00
2023-03-30T19:25:18.485Z,5.00
2023-03-30T19:27:59.545Z,5.00
2023-03-30T19:30:32.516Z,4.00
2023-03-30T19:33:02.135Z,4.00
2023-03-30T19:35:30.224Z,4.75
2023-03-30T19:37:58.163Z,5.00
2023-03-30T19:40:26.485Z,4.50
2023-03-30T19:42:54.709Z,4.00
2023-03-30T19:45:23.684Z,4.00
2023-03-30T19:47:53.270Z,3.25
2023-03-30T19:50:23.763Z,4.00
2023-03-30T19:52:51.674Z,4.00
2023-03-30T19:55:19.811Z,6.00
2023-03-30T19:57:47.770Z,7.00
2023-03-30T20:00:17.240Z,7.75
2023-03-30T20:02:46.379Z,9.00
2023-03-30T20:05:16.683Z,8.00
2023-03-30T20:07:45.023Z,7.00
2023-03-30T20:10:13.971Z,8.00
2023-03-30T20:12:42.149Z,7.00
2023-03-30T20:15:11.267Z,6.25
2023-03-30T20:17:39.348Z,6.00
2023-03-30T20:20:09.248Z,6.50
2023-03-30T20:22:39.903Z,5.50
2023-03-30T20:25:09.406Z,6.00
2023-03-30T20:27:37.522Z,5.75
2023-03-30T20:30:09.370Z,6.00
2023-03-30T20:32:38.603Z,5.00
2023-03-30T20:35:07.483Z,5.00
2023-03-30T20:37:35.573Z,4.50
2023-03-30T20:40:09.935Z,5.00
2023-03-30T20:42:39.957Z,4.50
2023-03-30T20:45:11.539Z,5.25
2023-03-30T20:47:39.541Z,4.00
2023-03-30T20:50:08.081Z,5.50
2023-03-30T20:52:36.562Z,4.00
2023-03-30T20:55:06.866Z,3.50
2023-03-30T20:57:34.817Z,4.00
2023-03-30T21:00:03.483Z,4.00
2023-03-30T21:02:31.798Z,4.00
2023-03-30T21:04:59.828Z,3.00
2023-03-30T21:07:27.730Z,4.00
2023-03-30T21:09:56.062Z,3.00
2023-03-30T21:12:25.768Z,3.00
2023-03-30T21:14:53.723Z,3.50
2023-03-30T21:17:21.958Z,3.00
2023-03-30T21:19:49.853Z,3.00
2023-03-30T21:22:18.981Z,3.00
2023-03-30T21:24:46.979Z,3.00
2023-03-30T21:27:14.975Z,3.00
2023-03-30T21:29:44.313Z,2.50
2023-03-30T21:32:12.289Z,2.50
2023-03-30T21:34:40.200Z,3.00
2023-03-30T21:37:08.201Z,2.00
2023-03-30T21:39:36.214Z,3.00
2023-03-30T21:42:05.254Z,2.75
2023-03-30T21:44:34.829Z,3.00
2023-03-30T21:47:04.313Z,3.00
2023-03-30T21:49:32.981Z,3.00
2023-03-30T21:52:02.237Z,3.00
2023-03-30T21:54:30.160Z,3.00
2023-03-30T21:56:58.093Z,2.00
2023-03-30T21:59:26.087Z,2.00
2023-03-30T22:01:54.303Z,2.25
2023-03-30T22:04:23.594Z,2.00
2023-03-30T22:06:51.594Z,2.00
2023-03-30T22:09:19.481Z,2.00
2023-03-30T22:11:47.727Z,2.00
2023-03-30T22:14:15.697Z,2.00
2023-03-30T22:16:43.800Z,2.25
2023-03-30T22:19:11.757Z,2.00
2023-03-30T22:21:42.327Z,2.00
2023-03-30T22:24:12.397Z,2.00
2023-03-30T22:26:40.431Z,2.00
2023-03-30T22:29:08.312Z,1.00
2023-03-30T22:31:36.568Z,2.75
2023-03-30T22:34:04.555Z,1.25
2023-03-30T22:36:33.183Z,2.00
2023-03-30T22:39:03.942Z,2.00
2023-03-30T22:41:31.853Z,2.00
2023-03-30T22:43:59.866Z,2.00
2023-03-30T22:46:28.208Z,2.00
2023-03-30T22:48:56.459Z,2.00
2023-03-30T22:51:26.761Z,1.00
2023-03-30T22:53:56.582Z,1.00
2023-03-30T22:56:25.950Z,2.00
2023-03-30T22:58:53.852Z,1.00
2023-03-30T23:01:22.227Z,2.00
2023-03-30T23:03:50.450Z,2.00
2023-03-30T23:06:19.141Z,1.00
2023-03-30T23:08:48.604Z,1.00
2023-03-30T23:11:17.193Z,1.00
2023-03-30T23:13:46.539Z,2.00
2023-03-30T23:16:15.421Z,1.00
2023-03-30T23:18:43.319Z,1.00
2023-03-30T23:21:14.140Z,1.00
2023-03-30T23:23:42.230Z,1.00
2023-03-30T23:26:11.102Z,1.00
2023-03-30T23:28:39.620Z,1.00
2023-03-30T23:31:09.945Z,2.00
2023-03-30T23:33:37.904Z,2.00
2023-03-30T23:36:07.422Z,1.75
2023-03-30T23:38:36.029Z,1.75
2023-03-30T23:41:06.038Z,1.00
2023-03-30T23:43:33.939Z,1.00
2023-03-30T23:46:01.961Z,1.00
2023-03-30T23:48:31.267Z,1.00
2023-03-30T23:50:59.762Z,1.00
2023-03-30T23:53:27.741Z,1.00
2023-03-30T23:55:55.647Z,1.00
2023-03-30T23:58:23.519Z,1.00
